Hyde Park, MA (02136)

5:17 AM EDT on August 30, 2014 (GMT -0400)
Roslindale (Rosecliff) | Change Station
CLOSE
Current Station
Personal Weather Station
Location: Roslindale, MA
Elevation: 157 ft
Nearby Weather Stations

Elev 157 ft 42.28 °N, 71.13 °W | Updated 25 minutes ago

Scattered Clouds
Scattered Clouds
55.8 °F
Feels Like 55.8 °F
N
0.0
Wind Variable Wind from North
Gusts 0.0 mph

Today
High -- | Low -- °F
--% Chance of Precip.
Yesterday
High -- | Low -- °F
Precip. -- in
6:07 AM 7:21 PM
Waxing Crescent, 20% visible
Pressure 30.30 in
Visibility 10.0 miles
Clouds Scattered Clouds 300 ft
Dew Point 56 °F
Humidity 99%
Rainfall 0.00 in
Snow Depth Not available.
UV 0 out of 12
Pollen 8.80 out of 12
Ozone Good
PM2.5 Good
Flu Activity Not available.
SPECI KOWD 300906Z AUTO 00000KT 10SM SCT003 08/07 A3030 RMK AO2 T00780072

More Conditions Fewer Conditions

Pressure 30.30 in
Visibility 10.0 miles
Clouds Scattered Clouds 300 ft
Dew Point 56 °F
Humidity 99%
Rainfall 0.00 in
Snow Depth Not available.
UV 0 out of 12
Pollen 8.80 out of 12
Ozone Good
PM2.5 Good
Flu Activity Not available.
SPECI KOWD 300906Z AUTO 00000KT 10SM SCT003 08/07 A3030 RMK AO2 T00780072

More Conditions Fewer Conditions

10-Day Weather Forecast

Almanac

Astronomy

Aug. 30, 2014 Rise Set
Actual Time 6:07 AM EDT 7:21 PM EDT
Civil Twilight 5:38 AM EDT 7:50 PM EDT
Nautical Twilight 5:03 AM EDT 8:25 PM EDT
Astronomical Twilight 4:27 AM EDT 9:01 PM EDT
Moon 10:58 AM EDT 9:47 PM EDT
Length of Visible Light 14h 12m
Length of Day
13h 14m
Tomorrow will be 2m 43s shorter.
Waxing Crescent, 20% of the Moon is Illuminated
Today
Waxing Crescent
Sep 2
First Quarter
Sep 8
Full
Sep 15
Last Quarter
Sep 24
New

Today's Extremes

State Highs State Lows

Community

WunderPhotos

Upload Photos

1,748,475 photos uploaded!

Nearby

Air Quality

  Air Quality AQ Index Pollutant
Yesterday Good
PM2.5
Yesterday Good
OZONE
Current Good
PM2.5
Current Good
OZONE
Saturday Good
PM2.5
Saturday Good
OZONE

Snow Depth

Station Depth Elevation
No new snow has been reported.

Earthquake Activity

City Distance Mag. Time & Date
No recent earthquake activity has been reported nearby.
Minimum magnitude displayed is 2.5.

Coastal Water Temperatures

Place Temperature
Boston, MA 68.0 °F
Providence, RI 71.1 °F
Fall River, MA 73.0 °F
Conimicut Light, RI 72.0 °F

Nearby Weather Stations